createdAt,value
2019-06-10T00:00:16.922Z,1013.27
2019-06-10T00:01:16.844Z,1013.23
2019-06-10T00:02:16.769Z,1013.22
2019-06-10T00:03:16.693Z,1013.20
2019-06-10T00:04:16.605Z,1013.17
2019-06-10T00:05:16.530Z,1013.17
2019-06-10T00:06:16.455Z,1013.18
2019-06-10T00:07:16.382Z,1013.18
2019-06-10T00:08:16.305Z,1013.14
2019-06-10T00:09:16.231Z,1013.16
2019-06-10T00:10:16.156Z,1013.15
2019-06-10T00:11:16.069Z,1013.16
2019-06-10T00:12:15.994Z,1013.14
2019-06-10T00:13:15.920Z,1013.09
2019-06-10T00:14:15.845Z,1013.15
2019-06-10T00:15:15.770Z,1013.16
2019-06-10T00:16:15.695Z,1013.20
2019-06-10T00:17:15.608Z,1013.21
2019-06-10T00:18:34.197Z,1013.22
2019-06-10T00:19:15.457Z,1013.24
2019-06-10T00:20:15.383Z,1013.23
2019-06-10T00:21:15.307Z,1013.32
2019-06-10T00:22:15.232Z,1013.32
2019-06-10T00:23:15.171Z,1013.30
2019-06-10T00:24:15.071Z,1013.32
2019-06-10T00:25:14.995Z,1013.35
2019-06-10T00:26:14.921Z,1013.38
2019-06-10T00:27:14.846Z,1013.36
2019-06-10T00:28:14.760Z,1013.36
2019-06-10T00:29:14.684Z,1013.30
2019-06-10T00:30:14.610Z,1013.28
2019-06-10T00:31:14.533Z,1013.24
2019-06-10T00:32:14.459Z,1013.24
2019-06-10T00:33:14.385Z,1013.24
2019-06-10T00:34:14.297Z,1013.23
2019-06-10T00:35:14.223Z,1013.19
2019-06-10T00:36:14.150Z,1013.20
2019-06-10T00:37:14.874Z,1013.22
2019-06-10T00:38:14.572Z,1013.15
2019-06-10T00:39:13.940Z,1013.20
2019-06-10T00:40:14.361Z,1013.15
2019-06-10T00:41:14.223Z,1013.15
2019-06-10T00:42:15.252Z,1013.14
2019-06-10T00:43:13.736Z,1013.10
2019-06-10T00:44:13.523Z,1013.11
2019-06-10T00:45:17.772Z,1013.12
2019-06-10T00:46:13.466Z,1013.10
2019-06-10T00:47:15.094Z,1013.10
2019-06-10T00:48:24.265Z,1013.05
2019-06-10T00:49:14.702Z,1013.05
2019-06-10T00:50:14.737Z,1013.00
2019-06-10T00:51:13.296Z,1012.98
2019-06-10T00:52:14.037Z,1012.97
2019-06-10T00:53:14.511Z,1012.95
2019-06-10T00:54:15.403Z,1012.92
2019-06-10T00:55:13.854Z,1012.92
2019-06-10T00:56:14.332Z,1012.87
2019-06-10T00:57:13.640Z,1012.84
2019-06-10T00:58:14.032Z,1012.79
2019-06-10T00:59:14.773Z,1012.79
2019-06-10T01:00:20.463Z,1012.79
2019-06-10T01:01:14.412Z,1012.79
2019-06-10T01:02:14.050Z,1012.80
2019-06-10T01:03:14.965Z,1012.82
2019-06-10T01:04:15.968Z,1012.82
2019-06-10T01:05:12.548Z,1012.81
2019-06-10T01:06:14.916Z,1012.80
2019-06-10T01:07:14.281Z,1012.78
2019-06-10T01:08:13.501Z,1012.77
2019-06-10T01:09:13.210Z,1012.72
2019-06-10T01:10:12.840Z,1012.67
2019-06-10T01:11:20.283Z,1012.68
2019-06-10T01:12:13.231Z,1012.61
2019-06-10T01:13:13.177Z,1012.56
2019-06-10T01:14:12.563Z,1012.51
2019-06-10T01:15:13.407Z,1012.49
2019-06-10T01:16:12.566Z,1012.50
2019-06-10T01:17:12.504Z,1012.49
2019-06-10T01:18:30.319Z,1012.44
2019-06-10T01:19:12.762Z,1012.43
2019-06-10T01:20:12.837Z,1012.41
2019-06-10T01:21:12.115Z,1012.43
2019-06-10T01:22:11.178Z,1012.42
2019-06-10T01:23:13.902Z,1012.37
2019-06-10T01:24:12.061Z,1012.37
2019-06-10T01:25:12.366Z,1012.36
2019-06-10T01:26:12.899Z,1012.36
2019-06-10T01:27:11.721Z,1012.33
2019-06-10T01:28:12.575Z,1012.29
2019-06-10T01:29:12.297Z,1012.32
2019-06-10T01:30:17.936Z,1012.30
2019-06-10T01:31:13.121Z,1012.37
2019-06-10T01:32:11.841Z,1012.42
2019-06-10T01:33:12.359Z,1012.40
2019-06-10T01:34:11.737Z,1012.39
2019-06-10T01:35:11.530Z,1012.38
2019-06-10T01:36:12.574Z,1012.36
2019-06-10T01:37:11.360Z,1012.35
2019-06-10T01:38:10.573Z,1012.32
2019-06-10T01:39:11.655Z,1012.31
2019-06-10T01:40:12.893Z,1012.24
2019-06-10T01:41:11.087Z,1012.21
2019-06-10T01:42:10.975Z,1012.17
2019-06-10T01:43:08.954Z,1012.14
2019-06-10T01:44:11.172Z,1012.14
2019-06-10T01:45:11.085Z,1012.10
2019-06-10T01:46:10.855Z,1012.14
2019-06-10T01:47:08.726Z,1012.13
2019-06-10T01:48:08.836Z,1012.12
2019-06-10T01:49:09.522Z,1012.11
2019-06-10T01:50:09.597Z,1012.13
2019-06-10T01:51:09.039Z,1012.15
2019-06-10T01:52:09.309Z,1012.18
2019-06-10T01:53:09.339Z,1012.14
2019-06-10T01:54:08.326Z,1012.17
2019-06-10T01:55:08.030Z,1012.16
2019-06-10T01:56:07.942Z,1012.10
2019-06-10T01:57:07.867Z,1012.16
2019-06-10T01:58:07.839Z,1012.16
2019-06-10T01:59:08.004Z,1012.18
2019-06-10T02:00:10.996Z,1012.18
2019-06-10T02:01:08.425Z,1012.12
2019-06-10T02:02:07.485Z,1012.11
2019-06-10T02:03:08.484Z,1012.06
2019-06-10T02:04:08.194Z,1012.04
2019-06-10T02:05:08.382Z,1012.03
2019-06-10T02:06:08.687Z,1012.01
2019-06-10T02:07:07.094Z,1011.93
2019-06-10T02:08:07.020Z,1011.87
2019-06-10T02:09:06.946Z,1011.81
2019-06-10T02:10:06.871Z,1011.77
2019-06-10T02:11:06.787Z,1011.72
2019-06-10T02:12:06.709Z,1011.69
2019-06-10T02:13:06.632Z,1011.64
2019-06-10T02:14:06.557Z,1011.55
2019-06-10T02:15:06.482Z,1011.53
2019-06-10T02:16:06.394Z,1011.44
2019-06-10T02:17:06.321Z,1011.40
2019-06-10T02:18:06.246Z,1011.40
2019-06-10T02:19:06.169Z,1011.36
2019-06-10T02:20:06.094Z,1011.36
2019-06-10T02:21:06.008Z,1011.39
2019-06-10T02:22:05.934Z,1011.38
2019-06-10T02:23:05.858Z,1011.41
2019-06-10T02:24:05.783Z,1011.43
2019-06-10T02:25:05.708Z,1011.38
2019-06-10T02:26:05.621Z,1011.37
2019-06-10T02:27:05.545Z,1011.35
2019-06-10T02:28:05.472Z,1011.31
2019-06-10T02:29:05.412Z,1011.28
2019-06-10T02:30:14.973Z,1011.25
2019-06-10T02:31:05.246Z,1011.24
2019-06-10T02:32:05.335Z,1011.21
2019-06-10T02:33:05.085Z,1011.24
2019-06-10T02:34:05.016Z,1011.23
2019-06-10T02:35:13.707Z,1011.27
2019-06-10T02:36:05.039Z,1011.28
2019-06-10T02:37:05.003Z,1011.40
2019-06-10T02:38:04.699Z,1011.48
2019-06-10T02:39:04.806Z,1011.54
2019-06-10T02:40:04.822Z,1011.65
2019-06-10T02:41:05.005Z,1011.59
2019-06-10T02:42:04.747Z,1011.44
2019-06-10T02:43:04.313Z,1011.36
2019-06-10T02:44:04.562Z,1011.31
2019-06-10T02:45:04.240Z,1011.22
2019-06-10T02:46:04.609Z,1011.17
2019-06-10T02:47:03.999Z,1011.09
2019-06-10T02:48:04.357Z,1011.04
2019-06-10T02:49:20.949Z,1010.95
2019-06-10T02:50:08.297Z,1010.90
2019-06-10T02:51:04.147Z,1010.83
2019-06-10T02:52:03.713Z,1010.79
2019-06-10T02:53:04.016Z,1010.80
2019-06-10T02:54:04.761Z,1010.74
2019-06-10T02:55:04.272Z,1010.70
2019-06-10T02:56:04.244Z,1010.68
2019-06-10T02:57:04.386Z,1010.60
2019-06-10T02:58:03.946Z,1010.56
2019-06-10T02:59:03.455Z,1010.59
2019-06-10T03:00:06.420Z,1010.64
2019-06-10T03:01:04.187Z,1010.68
2019-06-10T03:02:03.103Z,1010.67
2019-06-10T03:03:03.900Z,1010.70
2019-06-10T03:04:04.556Z,1010.67
2019-06-10T03:05:04.476Z,1010.68
2019-06-10T03:06:07.500Z,1010.68
2019-06-10T03:07:03.412Z,1010.73
2019-06-10T03:08:03.850Z,1010.74
2019-06-10T03:09:03.714Z,1010.76
2019-06-10T03:10:04.611Z,1010.67
2019-06-10T03:11:03.803Z,1010.71
2019-06-10T03:12:04.777Z,1010.70
2019-06-10T03:13:02.405Z,1010.64
2019-06-10T03:14:02.638Z,1010.66
2019-06-10T03:15:02.161Z,1010.67
2019-06-10T03:16:02.766Z,1010.64
2019-06-10T03:17:03.165Z,1010.66
2019-06-10T03:18:02.387Z,1010.60
2019-06-10T03:19:02.996Z,1010.60
2019-06-10T03:20:02.302Z,1010.60
2019-06-10T03:21:02.594Z,1010.60
2019-06-10T03:22:02.726Z,1010.62
2019-06-10T03:23:02.917Z,1010.60
2019-06-10T03:24:02.712Z,1010.65
2019-06-10T03:25:02.792Z,1010.66
2019-06-10T03:26:03.695Z,1010.71
2019-06-10T03:27:02.605Z,1010.73
2019-06-10T03:28:02.949Z,1010.74
2019-06-10T03:29:02.526Z,1010.81
2019-06-10T03:30:03.098Z,1010.81
2019-06-10T03:31:04.932Z,1010.84
2019-06-10T03:32:04.555Z,1010.83
2019-06-10T03:33:00.354Z,1010.85
2019-06-10T03:34:04.556Z,1010.85
2019-06-10T03:35:00.207Z,1010.88
2019-06-10T03:36:00.116Z,1010.91
2019-06-10T03:37:02.329Z,1010.92
2019-06-10T03:37:59.967Z,1010.95
2019-06-10T03:39:02.420Z,1010.98
2019-06-10T03:40:02.087Z,1011.03
2019-06-10T03:40:59.727Z,1011.03
2019-06-10T03:42:02.121Z,1011.03
2019-06-10T03:42:59.567Z,1011.06
2019-06-10T03:43:59.479Z,1011.04
2019-06-10T03:44:59.403Z,1011.06
2019-06-10T03:45:59.330Z,1011.03
2019-06-10T03:46:59.245Z,1011.01
2019-06-10T03:47:59.166Z,1011.01
2019-06-10T03:48:59.094Z,1011.02
2019-06-10T03:49:59.004Z,1010.99
2019-06-10T03:50:58.928Z,1010.98
2019-06-10T03:51:58.855Z,1010.97
2019-06-10T03:53:01.033Z,1010.91
2019-06-10T03:54:43.083Z,1010.85
2019-06-10T03:55:42.386Z,1010.85
2019-06-10T03:56:42.739Z,1010.85
2019-06-10T03:57:42.357Z,1010.81
2019-06-10T03:59:27.776Z,1010.81
2019-06-10T04:00:27.620Z,1010.81
2019-06-10T04:01:25.020Z,1010.87
2019-06-10T04:02:23.858Z,1010.77
2019-06-10T04:03:24.346Z,1010.78
2019-06-10T04:04:24.010Z,1010.73
2019-06-10T04:05:23.876Z,1010.74
2019-06-10T04:06:24.199Z,1010.75
2019-06-10T04:07:27.422Z,1010.77
2019-06-10T04:08:23.599Z,1010.82
2019-06-10T04:09:23.618Z,1010.80
2019-06-10T04:10:24.412Z,1010.79
2019-06-10T04:11:24.026Z,1010.81
2019-06-10T04:12:23.862Z,1010.73
2019-06-10T04:13:23.975Z,1010.75
2019-06-10T04:14:22.443Z,1010.76
2019-06-10T04:15:24.775Z,1010.76
2019-06-10T04:16:22.720Z,1010.72
2019-06-10T04:17:23.543Z,1010.76
2019-06-10T04:18:22.512Z,1010.68
2019-06-10T04:19:22.704Z,1010.70
2019-06-10T04:20:24.650Z,1010.58
2019-06-10T04:21:22.727Z,1010.58
2019-06-10T04:22:23.525Z,1010.57
2019-06-10T04:23:22.717Z,1010.59
2019-06-10T04:24:22.699Z,1010.62
2019-06-10T04:25:23.161Z,1010.53
2019-06-10T04:26:20.467Z,1010.58
2019-06-10T04:27:22.313Z,1010.55
2019-06-10T04:28:20.308Z,1010.55
2019-06-10T04:29:22.578Z,1010.50
2019-06-10T04:30:20.182Z,1010.49
2019-06-10T04:31:21.283Z,1010.50
2019-06-10T04:32:20.253Z,1010.46
2019-06-10T04:33:20.897Z,1010.51
2019-06-10T04:34:20.471Z,1010.48
2019-06-10T04:35:20.988Z,1010.41
2019-06-10T04:36:21.020Z,1010.47
2019-06-10T04:37:20.360Z,1010.41
2019-06-10T04:38:20.959Z,1010.26
2019-06-10T04:39:20.415Z,1010.23
2019-06-10T04:40:20.347Z,1010.18
2019-06-10T04:41:20.368Z,1010.19
2019-06-10T04:42:20.313Z,1010.19
2019-06-10T04:43:20.325Z,1010.10
2019-06-10T04:44:19.034Z,1010.03
2019-06-10T04:45:18.947Z,1010.03
2019-06-10T04:46:18.875Z,1009.98
2019-06-10T04:47:18.786Z,1010.04
2019-06-10T04:48:18.723Z,1010.01
2019-06-10T04:49:18.738Z,1009.96
2019-06-10T04:50:24.811Z,1010.04
2019-06-10T04:51:18.707Z,1009.99
2019-06-10T04:52:18.655Z,1009.95
2019-06-10T04:53:18.704Z,1009.96
2019-06-10T04:54:18.671Z,1009.99
2019-06-10T04:55:18.822Z,1010.09
2019-06-10T04:56:18.074Z,1010.05
2019-06-10T04:57:18.803Z,1010.03
2019-06-10T04:58:19.246Z,1010.05
2019-06-10T04:59:18.782Z,1010.14
2019-06-10T05:00:19.057Z,1010.17
2019-06-10T05:01:18.821Z,1010.19
2019-06-10T05:02:19.327Z,1010.31
2019-06-10T05:03:18.696Z,1010.42
2019-06-10T05:04:17.450Z,1010.45
2019-06-10T05:05:17.362Z,1010.51
2019-06-10T05:06:17.274Z,1010.53
2019-06-10T05:07:17.211Z,1010.50
2019-06-10T05:08:17.124Z,1010.48
2019-06-10T05:09:17.036Z,1010.51
2019-06-10T05:10:16.962Z,1010.52
2019-06-10T05:11:16.887Z,1010.52
2019-06-10T05:12:16.800Z,1010.46
2019-06-10T05:13:16.725Z,1010.39
2019-06-10T05:14:16.639Z,1010.33
2019-06-10T05:15:16.562Z,1010.37
2019-06-10T05:16:16.508Z,1010.36
2019-06-10T05:17:16.402Z,1010.38
2019-06-10T05:18:16.330Z,1010.38
2019-06-10T05:19:16.251Z,1010.36
2019-06-10T05:20:16.163Z,1010.34
2019-06-10T05:21:16.101Z,1010.35
2019-06-10T05:22:16.014Z,1010.38
2019-06-10T05:23:15.933Z,1010.40
2019-06-10T05:24:15.852Z,1010.40
2019-06-10T05:25:15.765Z,1010.39
2019-06-10T05:26:15.688Z,1010.39
2019-06-10T05:27:15.614Z,1010.33
2019-06-10T05:28:15.529Z,1010.26
2019-06-10T05:29:15.452Z,1010.24
2019-06-10T05:30:15.381Z,1010.23
2019-06-10T05:31:15.290Z,1010.20
2019-06-10T05:32:15.218Z,1010.23
2019-06-10T05:33:15.139Z,1010.26
2019-06-10T05:34:15.053Z,1010.29
2019-06-10T05:35:14.977Z,1010.31
2019-06-10T05:36:14.904Z,1010.39
2019-06-10T05:37:14.814Z,1010.41
2019-06-10T05:38:14.740Z,1010.38
2019-06-10T05:39:14.665Z,1010.35
2019-06-10T05:40:14.578Z,1010.28
2019-06-10T05:41:14.504Z,1010.16
2019-06-10T05:42:14.435Z,1010.14
2019-06-10T05:43:14.341Z,1010.18
2019-06-10T05:44:14.265Z,1010.22
2019-06-10T05:45:14.205Z,1010.30
2019-06-10T05:46:14.103Z,1010.25
2019-06-10T05:47:14.033Z,1010.18
2019-06-10T05:48:16.575Z,1010.13
2019-06-10T05:49:13.871Z,1010.19
2019-06-10T05:50:13.804Z,1010.18
2019-06-10T05:51:13.716Z,1010.22
2019-06-10T05:52:13.631Z,1010.27
2019-06-10T05:53:13.555Z,1010.26
2019-06-10T05:54:13.480Z,1010.32
2019-06-10T05:55:13.392Z,1010.37
2019-06-10T05:56:13.317Z,1010.40
2019-06-10T05:57:13.243Z,1010.45
2019-06-10T05:58:13.157Z,1010.44
2019-06-10T05:59:13.086Z,1010.40
2019-06-10T06:00:14.972Z,1010.33
2019-06-10T06:01:13.363Z,1010.25
2019-06-10T06:02:12.919Z,1010.20
2019-06-10T06:03:12.774Z,1010.20
2019-06-10T06:04:12.883Z,1010.13
2019-06-10T06:05:12.798Z,1010.13
2019-06-10T06:06:12.719Z,1010.15
2019-06-10T06:07:12.889Z,1010.11
2019-06-10T06:08:12.533Z,1010.11
2019-06-10T06:09:12.966Z,1010.15
2019-06-10T06:10:13.012Z,1010.11
2019-06-10T06:11:12.717Z,1010.05
2019-06-10T06:12:14.158Z,1010.09
2019-06-10T06:13:12.681Z,1010.11
2019-06-10T06:14:13.264Z,1010.12
2019-06-10T06:15:12.941Z,1010.14
2019-06-10T06:16:12.664Z,1010.10
2019-06-10T06:17:12.710Z,1010.12
2019-06-10T06:18:14.007Z,1010.10
2019-06-10T06:19:12.549Z,1010.13
2019-06-10T06:20:13.293Z,1010.15
2019-06-10T06:21:22.330Z,1010.17
2019-06-10T06:22:12.988Z,1010.16
2019-06-10T06:23:12.263Z,1010.14
2019-06-10T06:24:12.884Z,1010.14
2019-06-10T06:25:14.667Z,1010.12
2019-06-10T06:26:15.873Z,1010.12
2019-06-10T06:27:12.947Z,1010.21
2019-06-10T06:28:12.927Z,1010.26
2019-06-10T06:29:12.818Z,1010.30
2019-06-10T06:30:13.728Z,1010.23
2019-06-10T06:31:12.480Z,1010.26
2019-06-10T06:32:13.055Z,1010.33
2019-06-10T06:33:13.340Z,1010.35
2019-06-10T06:34:10.333Z,1010.37
2019-06-10T06:35:12.502Z,1010.40
2019-06-10T06:36:12.450Z,1010.38
2019-06-10T06:37:12.601Z,1010.31
2019-06-10T06:38:10.021Z,1010.25
2019-06-10T06:39:09.947Z,1010.14
2019-06-10T06:40:09.872Z,1010.12
2019-06-10T06:41:09.785Z,1010.08
2019-06-10T06:42:09.709Z,1010.11
2019-06-10T06:43:11.950Z,1010.04
2019-06-10T06:44:09.547Z,1010.03
2019-06-10T06:45:09.472Z,1009.98
2019-06-10T06:46:09.398Z,1009.96
2019-06-10T06:47:09.321Z,1009.88
2019-06-10T06:48:09.247Z,1009.81
2019-06-10T06:49:09.161Z,1009.74
2019-06-10T06:50:09.094Z,1009.69
2019-06-10T06:51:09.055Z,1009.63
2019-06-10T06:52:08.934Z,1009.58
2019-06-10T06:53:21.104Z,1009.57
2019-06-10T06:54:08.772Z,1009.58
2019-06-10T06:55:08.710Z,1009.55
2019-06-10T06:56:08.622Z,1009.59
2019-06-10T06:57:08.536Z,1009.63
2019-06-10T06:58:08.462Z,1009.61
2019-06-10T06:59:08.386Z,1009.65
2019-06-10T07:00:33.857Z,1009.74
2019-06-10T07:01:11.026Z,1009.75
2019-06-10T07:02:08.153Z,1009.66
2019-06-10T07:03:08.073Z,1009.76
2019-06-10T07:04:07.998Z,1009.78
2019-06-10T07:05:07.917Z,1009.82
2019-06-10T07:06:07.841Z,1009.91
2019-06-10T07:07:07.763Z,1009.84
2019-06-10T07:08:07.686Z,1009.84
2019-06-10T07:09:08.255Z,1009.91
2019-06-10T07:10:07.524Z,1009.93
2019-06-10T07:11:07.452Z,1009.85
2019-06-10T07:12:07.389Z,1009.78
2019-06-10T07:13:07.299Z,1009.78
2019-06-10T07:14:09.995Z,1009.82
2019-06-10T07:15:07.138Z,1009.83
2019-06-10T07:16:07.062Z,1009.78
2019-06-10T07:17:06.987Z,1009.80
2019-06-10T07:18:06.914Z,1009.77
2019-06-10T07:19:06.825Z,1009.73
2019-06-10T07:20:06.750Z,1009.82
2019-06-10T07:21:06.674Z,1009.83
2019-06-10T07:22:12.467Z,1009.75
2019-06-10T07:23:06.539Z,1009.74
2019-06-10T07:24:06.439Z,1009.68
2019-06-10T07:25:06.735Z,1009.65
2019-06-10T07:26:06.295Z,1009.67
2019-06-10T07:27:06.217Z,1009.70
2019-06-10T07:28:06.138Z,1009.74
2019-06-10T07:29:06.052Z,1009.73
2019-06-10T07:30:11.729Z,1009.72
2019-06-10T07:31:19.904Z,1009.67
2019-06-10T07:32:05.839Z,1009.66
2019-06-10T07:33:05.751Z,1009.64
2019-06-10T07:34:05.676Z,1009.64
2019-06-10T07:35:05.590Z,1009.67
2019-06-10T07:36:05.523Z,1009.70
2019-06-10T07:37:05.439Z,1009.64
2019-06-10T07:38:05.367Z,1009.71
2019-06-10T07:39:05.289Z,1009.68
2019-06-10T07:40:05.203Z,1009.70
2019-06-10T07:41:05.128Z,1009.72
2019-06-10T07:42:05.052Z,1009.73
2019-06-10T07:43:04.977Z,1009.72
2019-06-10T07:44:04.903Z,1009.76
2019-06-10T07:45:04.830Z,1009.69
2019-06-10T07:46:04.741Z,1009.65
2019-06-10T07:47:04.666Z,1009.67
2019-06-10T07:48:04.592Z,1009.66
2019-06-10T07:49:04.516Z,1009.65
2019-06-10T07:50:04.440Z,1009.71
2019-06-10T07:51:04.365Z,1009.79
2019-06-10T07:52:15.160Z,1009.79
2019-06-10T07:53:04.203Z,1009.68
2019-06-10T07:54:04.128Z,1009.69
2019-06-10T07:55:04.066Z,1009.70
2019-06-10T07:56:03.978Z,1009.73
2019-06-10T07:57:03.895Z,1009.70
2019-06-10T07:58:03.817Z,1009.72
2019-06-10T07:59:04.027Z,1009.76
2019-06-10T08:00:03.667Z,1009.80
2019-06-10T08:01:03.595Z,1009.78
2019-06-10T08:02:03.518Z,1009.79
2019-06-10T08:03:03.432Z,1009.78
2019-06-10T08:04:03.354Z,1009.81
2019-06-10T08:05:03.650Z,1009.82
2019-06-10T08:06:03.431Z,1009.80
2019-06-10T08:07:03.429Z,1009.77
2019-06-10T08:08:03.065Z,1009.74
2019-06-10T08:09:02.980Z,1009.74
2019-06-10T08:10:03.034Z,1009.74
2019-06-10T08:11:03.497Z,1009.72
2019-06-10T08:12:05.818Z,1009.70
2019-06-10T08:13:02.981Z,1009.69
2019-06-10T08:14:04.652Z,1009.68
2019-06-10T08:15:02.836Z,1009.67
2019-06-10T08:16:02.928Z,1009.63
2019-06-10T08:17:03.098Z,1009.61
2019-06-10T08:18:04.351Z,1009.65
2019-06-10T08:19:30.269Z,1009.66
2019-06-10T08:20:02.468Z,1009.62
2019-06-10T08:21:03.186Z,1009.63
2019-06-10T08:22:02.967Z,1009.63
2019-06-10T08:23:02.213Z,1009.68
2019-06-10T08:24:03.474Z,1009.67
2019-06-10T08:25:04.820Z,1009.66
2019-06-10T08:26:03.511Z,1009.68
2019-06-10T08:27:02.735Z,1009.71
2019-06-10T08:28:03.033Z,1009.67
2019-06-10T08:29:04.146Z,1009.70
2019-06-10T08:30:15.489Z,1009.67
2019-06-10T08:31:03.396Z,1009.63
2019-06-10T08:32:03.303Z,1009.67
2019-06-10T08:33:03.354Z,1009.66
2019-06-10T08:34:02.966Z,1009.66
2019-06-10T08:35:02.772Z,1009.66
2019-06-10T08:36:03.673Z,1009.69
2019-06-10T08:37:04.378Z,1009.65
2019-06-10T08:38:02.471Z,1009.68
2019-06-10T08:39:03.023Z,1009.66
2019-06-10T08:40:00.633Z,1009.65
2019-06-10T08:41:02.855Z,1009.65
2019-06-10T08:42:02.983Z,1009.63
2019-06-10T08:43:00.408Z,1009.63
2019-06-10T08:44:02.231Z,1009.65
2019-06-10T08:45:03.007Z,1009.64
2019-06-10T08:46:02.332Z,1009.63
2019-06-10T08:47:00.108Z,1009.63
2019-06-10T08:48:02.508Z,1009.68
2019-06-10T08:48:59.958Z,1009.65
2019-06-10T08:50:02.443Z,1009.68
2019-06-10T08:50:59.833Z,1009.68
2019-06-10T08:52:02.486Z,1009.70
2019-06-10T08:53:10.347Z,1009.65
2019-06-10T08:54:02.132Z,1009.61
2019-06-10T08:54:59.509Z,1009.60
2019-06-10T08:55:59.434Z,1009.59
2019-06-10T08:56:59.361Z,1009.56
2019-06-10T08:57:59.288Z,1009.60
2019-06-10T08:58:59.222Z,1009.66
2019-06-10T08:59:59.135Z,1009.64
2019-06-10T09:00:59.072Z,1009.59
2019-06-10T09:01:58.987Z,1009.63
2019-06-10T09:02:58.923Z,1009.63
2019-06-10T09:03:58.849Z,1009.60
2019-06-10T09:04:58.774Z,1009.59
2019-06-10T09:05:58.717Z,1009.59
2019-06-10T09:06:58.624Z,1009.60
2019-06-10T09:07:58.549Z,1009.68
2019-06-10T09:08:58.476Z,1009.70
2019-06-10T09:09:58.402Z,1009.64
2019-06-10T09:10:58.325Z,1009.63
2019-06-10T09:11:58.249Z,1009.62
2019-06-10T09:12:58.174Z,1009.60
2019-06-10T09:13:58.102Z,1009.63
2019-06-10T09:14:58.025Z,1009.64
2019-06-10T09:16:10.885Z,1009.65
2019-06-10T09:16:57.886Z,1009.66
2019-06-10T09:17:57.811Z,1009.65
2019-06-10T09:18:57.736Z,1009.62
2019-06-10T09:19:57.677Z,1009.64
2019-06-10T09:20:57.587Z,1009.57
2019-06-10T09:21:57.566Z,1009.58
2019-06-10T09:23:14.997Z,1009.56
2019-06-10T09:24:00.008Z,1009.58
2019-06-10T09:24:57.288Z,1009.64
2019-06-10T09:25:57.778Z,1009.63
2019-06-10T09:26:57.141Z,1009.73
2019-06-10T09:27:57.076Z,1009.62
2019-06-10T09:28:57.004Z,1009.61
2019-06-10T09:29:56.926Z,1009.59
2019-06-10T09:30:59.143Z,1009.63
2019-06-10T09:31:56.777Z,1009.62
2019-06-10T09:32:58.725Z,1009.59
2019-06-10T09:33:57.166Z,1009.54
2019-06-10T09:34:57.667Z,1009.50
2019-06-10T09:35:56.501Z,1009.45
2019-06-10T09:36:56.991Z,1009.43
2019-06-10T09:37:56.340Z,1009.50
2019-06-10T09:38:56.269Z,1009.60
2019-06-10T09:39:59.556Z,1009.58
2019-06-10T09:41:01.849Z,1009.48
2019-06-10T09:42:01.451Z,1009.48
2019-06-10T09:42:55.980Z,1009.48
2019-06-10T09:43:56.877Z,1009.56
2019-06-10T09:44:55.922Z,1009.56
2019-06-10T09:45:56.601Z,1009.53
2019-06-10T09:46:56.050Z,1009.44
2019-06-10T09:47:59.894Z,1009.49
2019-06-10T09:48:55.911Z,1009.41
2019-06-10T09:49:55.738Z,1009.42
2019-06-10T09:50:58.541Z,1009.45
2019-06-10T09:51:57.499Z,1009.52
2019-06-10T09:52:57.021Z,1009.59
2019-06-10T09:54:03.688Z,1009.63
2019-06-10T09:54:56.789Z,1009.64
2019-06-10T09:55:55.596Z,1009.65
2019-06-10T09:56:54.990Z,1009.67
2019-06-10T09:57:59.789Z,1009.61
2019-06-10T09:58:55.420Z,1009.65
2019-06-10T09:59:56.339Z,1009.58
2019-06-10T10:00:57.885Z,1009.62
2019-06-10T10:02:00.095Z,1009.60
2019-06-10T10:02:56.160Z,1009.60
2019-06-10T10:03:59.734Z,1009.66
2019-06-10T10:04:58.500Z,1009.76
2019-06-10T10:06:07.357Z,1009.64
2019-06-10T10:06:57.199Z,1009.61
2019-06-10T10:07:57.288Z,1009.44
2019-06-10T10:08:58.298Z,1009.42
2019-06-10T10:09:57.000Z,1009.43
2019-06-10T10:10:58.622Z,1009.41
2019-06-10T10:11:55.905Z,1009.40
2019-06-10T10:12:55.797Z,1009.42
2019-06-10T10:13:53.820Z,1009.40
2019-06-10T10:14:56.218Z,1009.40
2019-06-10T10:15:54.372Z,1009.44
2019-06-10T10:16:59.171Z,1009.40
2019-06-10T10:17:56.282Z,1009.40
2019-06-10T10:19:00.298Z,1009.39
2019-06-10T10:19:56.778Z,1009.40
2019-06-10T10:20:58.684Z,1009.39
2019-06-10T10:21:58.187Z,1009.46
2019-06-10T10:22:55.141Z,1009.36
2019-06-10T10:24:06.229Z,1009.39
2019-06-10T10:24:56.679Z,1009.33
2019-06-10T10:25:57.013Z,1009.34
2019-06-10T10:26:57.367Z,1009.33
2019-06-10T10:27:57.261Z,1009.29
2019-06-10T10:28:57.042Z,1009.27
2019-06-10T10:29:57.012Z,1009.24
2019-06-10T10:30:57.095Z,1009.24
2019-06-10T10:31:53.793Z,1009.21
2019-06-10T10:32:53.948Z,1009.26
2019-06-10T10:33:52.690Z,1009.28
2019-06-10T10:34:56.153Z,1009.27
2019-06-10T10:35:52.669Z,1009.30
2019-06-10T10:36:56.740Z,1009.27
2019-06-10T10:37:54.251Z,1009.33
2019-06-10T10:38:53.417Z,1009.35
2019-06-10T10:39:54.464Z,1009.35
2019-06-10T10:40:56.464Z,1009.37
2019-06-10T10:41:55.006Z,1009.39
2019-06-10T10:42:59.191Z,1009.34
2019-06-10T10:43:56.567Z,1009.36
2019-06-10T10:44:58.388Z,1009.33
2019-06-10T10:45:54.568Z,1009.29
2019-06-10T10:46:53.775Z,1009.29
2019-06-10T10:47:52.562Z,1009.30
2019-06-10T10:48:53.368Z,1009.31
2019-06-10T10:49:55.522Z,1009.24
2019-06-10T10:50:54.543Z,1009.23
2019-06-10T10:51:51.204Z,1009.26
2019-06-10T10:52:52.363Z,1009.23
2019-06-10T10:54:15.402Z,1009.24
2019-06-10T10:54:51.890Z,1009.27
2019-06-10T10:55:51.866Z,1009.31
2019-06-10T10:56:55.149Z,1009.29
2019-06-10T10:57:52.855Z,1009.29
2019-06-10T10:58:54.866Z,1009.28
2019-06-10T10:59:54.197Z,1009.27
2019-06-10T11:00:54.266Z,1009.25
2019-06-10T11:01:51.496Z,1009.29
2019-06-10T11:02:51.463Z,1009.27
2019-06-10T11:03:51.423Z,1009.24
2019-06-10T11:04:53.332Z,1009.26
2019-06-10T11:05:52.339Z,1009.29
2019-06-10T11:06:50.073Z,1009.30
2019-06-10T11:07:50.000Z,1009.31
2019-06-10T11:08:49.988Z,1009.33
2019-06-10T11:09:50.337Z,1009.31
2019-06-10T11:10:52.063Z,1009.32
2019-06-10T11:11:52.231Z,1009.33
2019-06-10T11:12:49.649Z,1009.35
2019-06-10T11:13:49.573Z,1009.34
2019-06-10T11:14:49.499Z,1009.34
2019-06-10T11:15:49.424Z,1009.31
2019-06-10T11:16:49.473Z,1009.34
2019-06-10T11:17:49.541Z,1009.28
2019-06-10T11:18:49.347Z,1009.25
2019-06-10T11:19:49.307Z,1009.21
2019-06-10T11:20:49.906Z,1009.22
2019-06-10T11:21:49.550Z,1009.19
2019-06-10T11:22:49.606Z,1009.24
2019-06-10T11:23:50.030Z,1009.23
2019-06-10T11:24:49.315Z,1009.18
2019-06-10T11:25:49.823Z,1009.22
2019-06-10T11:26:49.860Z,1009.20
2019-06-10T11:27:48.986Z,1009.17
2019-06-10T11:28:49.471Z,1009.18
2019-06-10T11:29:48.424Z,1009.19
2019-06-10T11:30:49.327Z,1009.16
2019-06-10T11:31:48.488Z,1009.12
2019-06-10T11:32:48.241Z,1009.09
2019-06-10T11:33:48.693Z,1009.08
2019-06-10T11:34:48.075Z,1009.08
2019-06-10T11:35:48.786Z,1009.06
2019-06-10T11:36:48.014Z,1009.09
2019-06-10T11:37:48.881Z,1009.14
2019-06-10T11:38:48.591Z,1009.16
2019-06-10T11:39:48.132Z,1009.20
2019-06-10T11:40:47.652Z,1009.20
2019-06-10T11:41:48.107Z,1009.20
2019-06-10T11:42:48.348Z,1009.12
2019-06-10T11:43:48.278Z,1009.12
2019-06-10T11:44:48.327Z,1009.10
2019-06-10T11:45:52.376Z,1009.09
2019-06-10T11:46:47.227Z,1009.13
2019-06-10T11:47:47.153Z,1009.16
2019-06-10T11:48:47.091Z,1009.10
2019-06-10T11:49:47.034Z,1009.10
2019-06-10T11:50:47.130Z,1009.10
2019-06-10T11:51:47.167Z,1009.05
2019-06-10T11:52:47.542Z,1009.04
2019-06-10T11:53:47.453Z,1009.03
2019-06-10T11:54:55.818Z,1009.07
2019-06-10T11:55:47.609Z,1009.02
2019-06-10T11:56:47.653Z,1008.98
2019-06-10T11:57:47.770Z,1009.02
2019-06-10T11:58:46.416Z,1008.97
2019-06-10T11:59:46.341Z,1008.95
2019-06-10T12:00:46.278Z,1008.91
2019-06-10T12:01:46.203Z,1008.92
2019-06-10T12:02:46.142Z,1008.90
2019-06-10T12:03:46.066Z,1008.89
2019-06-10T12:04:46.005Z,1008.87
2019-06-10T12:05:45.942Z,1008.90